Time;durP1;ratioP1;P1;durP2;ratioP2;P2;SDS_P1;SDS_P2;PMS_P1;PMS_P2;Temp;Humidity;BMP_temperature;BMP_pressure;BME280_temperature;BME280_humidity;BME280_pressure;Samples;Min_cycle;Max_cycle;Signal;HPM_P1;HPM_P2
2023/04/01 00:00:06;;;;;;;2.15;0.68;;;;;;;10.02;100.00;98683.28;5167113;28;20072;-73
2023/04/01 00:02:36;;;;;;;3.50;0.60;;;;;;;9.99;100.00;98678.22;5155738;28;20035;-72
2023/04/01 00:05:07;;;;;;;1.75;0.63;;;;;;;10.02;100.00;98670.22;5166468;28;20033;-71
2023/04/01 00:07:39;;;;;;;2.75;0.80;;;;;;;10.03;100.00;98671.91;5163803;28;20403;-72
2023/04/01 00:10:11;;;;;;;2.83;0.80;;;;;;;10.01;100.00;98671.13;5169165;28;20041;-72
2023/04/01 00:12:42;;;;;;;1.80;0.70;;;;;;;10.11;100.00;98675.72;5160348;28;20023;-72
2023/04/01 00:15:12;;;;;;;2.03;0.85;;;;;;;9.95;100.00;98671.50;5160378;28;20072;-72
2023/04/01 00:17:42;;;;;;;5.03;1.23;;;;;;;9.95;100.00;98674.13;5174136;28;20034;-73
2023/04/01 00:20:14;;;;;;;2.03;0.73;;;;;;;9.93;100.00;98669.00;5167128;28;20038;-73
2023/04/01 00:22:44;;;;;;;2.38;0.70;;;;;;;9.91;100.00;98672.63;5156648;28;20110;-72
2023/04/01 00:25:14;;;;;;;4.35;0.60;;;;;;;10.05;100.00;98676.09;5174250;28;20104;-72
2023/04/01 00:27:45;;;;;;;4.28;0.80;;;;;;;9.99;100.00;98675.63;5172120;28;20018;-71
2023/04/01 00:30:15;;;;;;;1.85;0.60;;;;;;;10.13;100.00;98673.00;5173884;28;20117;-72
2023/04/01 00:32:46;;;;;;;5.60;0.70;;;;;;;10.05;100.00;98675.25;5158267;28;20034;-72
2023/04/01 00:35:16;;;;;;;1.80;0.55;;;;;;;9.99;100.00;98668.63;5164944;28;20128;-71
2023/04/01 00:37:47;;;;;;;5.55;0.90;;;;;;;10.18;100.00;98681.38;5169504;28;20036;-72
2023/04/01 00:40:36;;;;;;;2.05;0.68;;;;;;;9.97;100.00;98674.88;5171368;28;20022;-71
2023/04/01 00:43:18;;;;;;;5.82;0.70;;;;;;;10.06;100.00;98663.88;5162179;28;20022;-72
2023/04/01 00:45:49;;;;;;;1.88;0.60;;;;;;;10.01;100.00;98673.75;5171209;28;20028;-71
2023/04/01 00:48:23;;;;;;;2.38;0.75;;;;;;;10.11;100.00;98673.09;5166822;28;20395;-72
2023/04/01 00:51:04;;;;;;;3.10;0.80;;;;;;;10.04;100.00;98665.75;5162266;28;20030;-72
2023/04/01 00:53:40;;;;;;;6.80;0.98;;;;;;;10.04;100.00;98668.38;5165901;28;20036;-71
2023/04/01 00:56:15;;;;;;;3.47;0.50;;;;;;;10.06;100.00;98666.50;5165344;28;20030;-71
2023/04/01 00:58:54;;;;;;;3.70;0.73;;;;;;;10.05;100.00;98664.81;5156311;28;20062;-71
2023/04/01 01:01:26;;;;;;;2.53;0.70;;;;;;;10.12;100.00;98669.53;5164689;28;20034;-72
2023/04/01 01:03:56;;;;;;;2.05;0.50;;;;;;;10.09;100.00;98682.78;5170826;28;20034;-72
2023/04/01 01:06:50;;;;;;;1.80;0.60;;;;;;;10.00;100.00;98672.91;5166825;28;20046;-72
2023/04/01 01:09:32;;;;;;;4.38;0.68;;;;;;;10.12;100.00;98681.75;5160760;28;20026;-71
2023/04/01 01:12:34;;;;;;;2.38;0.38;;;;;;;10.02;100.00;98672.84;5167662;28;20021;-72
2023/04/01 01:15:14;;;;;;;2.13;0.40;;;;;;;10.08;100.00;98669.84;5162271;28;20180;-70
2023/04/01 01:18:12;;;;;;;2.70;0.50;;;;;;;10.08;100.00;98664.63;5161136;28;20076;-71
2023/04/01 01:20:42;;;;;;;2.30;0.57;;;;;;;10.09;100.00;98668.91;5163259;28;20026;-72
2023/04/01 01:23:30;;;;;;;1.20;0.45;;;;;;;10.18;100.00;98668.31;5167692;28;20022;-71
2023/04/01 01:26:17;;;;;;;3.72;0.50;;;;;;;10.27;100.00;98667.72;5169861;28;20487;-71
2023/04/01 01:29:05;;;;;;;1.30;0.52;;;;;;;10.20;100.00;98669.88;5161633;28;20389;-72
2023/04/01 01:32:01;;;;;;;1.88;0.40;;;;;;;10.25;100.00;98672.19;5163011;28;20269;-71
2023/04/01 01:34:52;;;;;;;2.70;0.70;;;;;;;10.24;100.00;98676.59;5167136;28;20038;-72
2023/04/01 01:37:27;;;;;;;0.90;0.40;;;;;;;10.18;100.00;98666.53;5163909;28;20302;-71
2023/04/01 01:40:02;;;;;;;3.72;0.70;;;;;;;10.18;100.00;98666.53;5157587;28;20031;-72
2023/04/01 01:42:37;;;;;;;0.88;0.40;;;;;;;10.28;100.00;98666.78;5163227;28;20018;-72
2023/04/01 01:45:09;;;;;;;4.15;0.50;;;;;;;10.23;100.00;98664.47;5167377;28;20510;-71
2023/04/01 01:47:41;;;;;;;3.65;0.60;;;;;;;10.07;100.00;98670.78;5157209;28;20517;-72
2023/04/01 01:50:13;;;;;;;1.65;0.32;;;;;;;10.05;100.00;98670.03;5170611;28;20101;-72
2023/04/01 01:52:44;;;;;;;2.38;0.68;;;;;;;10.05;100.00;98678.72;5172856;28;20026;-72
2023/04/01 01:55:40;;;;;;;2.90;0.50;;;;;;;10.18;100.00;98670.94;5170525;28;20571;-72
2023/04/01 01:58:14;;;;;;;3.08;0.50;;;;;;;10.08;100.00;98669.84;5162058;28;20021;-72
2023/04/01 02:00:55;;;;;;;1.08;0.47;;;;;;;10.06;100.00;98666.50;5170493;28;20033;-71
2023/04/01 02:03:29;;;;;;;9.05;0.65;;;;;;;10.12;100.00;98676.53;5162875;28;20504;-72
2023/04/01 02:06:01;;;;;;;1.38;0.40;;;;;;;10.20;100.00;98669.88;5165140;28;20084;-72
2023/04/01 02:08:40;;;;;;;1.50;0.40;;;;;;;10.11;100.00;98677.47;5163946;28;20037;-71
2023/04/01 02:11:18;;;;;;;1.08;0.40;;;;;;;10.04;100.00;98673.59;5166390;28;20118;-72
2023/04/01 02:13:54;;;;;;;1.33;0.40;;;;;;;10.17;100.00;98675.31;5166906;28;20045;-71
2023/04/01 02:17:19;;;;;;;2.55;0.50;;;;;;;10.19;100.00;98677.81;5167651;28;20121;-72
2023/04/01 02:19:54;;;;;;;3.90;0.68;;;;;;;10.01;100.00;98677.22;5123980;28;20038;-72
2023/04/01 02:22:31;;;;;;;2.92;0.60;;;;;;;9.96;100.00;98683.66;5162348;28;20104;-72
2023/04/01 02:25:11;;;;;;;1.38;0.50;;;;;;;9.92;100.00;98685.59;5169324;28;20386;-72
2023/04/01 02:27:44;;;;;;;1.98;0.50;;;;;;;9.89;100.00;98685.81;5158349;28;20023;-72
2023/04/01 02:30:16;;;;;;;1.60;0.40;;;;;;;9.81;100.00;98679.38;5167594;28;20242;-72
2023/04/01 02:32:48;;;;;;;1.92;0.60;;;;;;;9.75;100.00;98683.22;5166720;28;20054;-72
2023/04/01 02:35:19;;;;;;;5.65;0.70;;;;;;;9.80;100.00;98681.16;5164597;28;20026;-71
2023/04/01 02:37:52;;;;;;;1.30;0.45;;;;;;;9.76;100.00;98684.88;5163642;28;20129;-71
2023/04/01 02:40:22;;;;;;;2.30;0.50;;;;;;;9.76;100.00;98686.66;5165404;28;20030;-72
2023/04/01 02:42:53;;;;;;;1.77;0.55;;;;;;;9.78;100.00;98692.59;5162223;28;20031;-72
2023/04/01 02:45:23;;;;;;;1.25;0.50;;;;;;;9.83;100.00;98690.56;5169964;28;20452;-72
2023/04/01 02:47:53;;;;;;;2.25;0.50;;;;;;;9.80;100.00;98693.38;5166896;28;20288;-71
2023/04/01 02:50:23;;;;;;;3.53;0.63;;;;;;;9.73;100.00;98687.69;5167344;28;20030;-71
2023/04/01 02:52:54;;;;;;;3.80;0.60;;;;;;;9.70;100.00;98694.84;5168585;28;20030;-72
2023/04/01 02:55:24;;;;;;;1.75;0.50;;;;;;;9.67;100.00;98692.44;5166135;28;20044;-72
2023/04/01 02:57:54;;;;;;;2.60;0.70;;;;;;;9.80;100.00;98696.78;5159933;28;20030;-71
2023/04/01 03:00:25;;;;;;;1.80;0.60;;;;;;;9.66;100.00;98693.38;5165289;28;20043;-72
2023/04/01 03:02:56;;;;;;;3.05;0.50;;;;;;;9.62;100.00;98689.28;5163493;28;20972;-72
2023/04/01 03:05:26;;;;;;;5.70;0.80;;;;;;;9.64;100.00;98695.25;5161752;28;20034;-72
2023/04/01 03:07:56;;;;;;;2.97;0.60;;;;;;;9.59;100.00;98694.69;5162434;28;20054;-71
2023/04/01 03:10:26;;;;;;;2.45;0.50;;;;;;;9.59;100.00;98698.13;5163563;28;20158;-71
2023/04/01 03:12:57;;;;;;;2.70;0.52;;;;;;;9.58;100.00;98695.59;5166834;28;20038;-71
2023/04/01 03:15:27;;;;;;;2.75;0.50;;;;;;;9.61;100.00;98693.66;5164986;28;20052;-71
2023/04/01 03:17:57;;;;;;;3.15;0.80;;;;;;;9.75;100.00;98692.78;5161839;28;20117;-72
2023/04/01 03:20:28;;;;;;;1.55;0.68;;;;;;;9.69;100.00;98694.00;5166003;28;20033;-71
2023/04/01 03:22:58;;;;;;;1.65;0.50;;;;;;;9.67;100.00;98698.47;5166593;28;20018;-72
2023/04/01 03:25:30;;;;;;;2.20;0.60;;;;;;;9.70;100.00;98702.69;5165002;28;20036;-71
2023/04/01 03:28:00;;;;;;;1.88;0.70;;;;;;;9.77;100.00;98696.13;5165294;28;20105;-71
2023/04/01 03:30:31;;;;;;;1.35;0.60;;;;;;;9.71;100.00;98697.38;5166675;28;20133;-72
2023/04/01 03:33:02;;;;;;;3.05;0.55;;;;;;;9.74;100.00;98701.56;5170056;28;20028;-71
2023/04/01 03:35:35;;;;;;;3.58;0.80;;;;;;;9.70;100.00;98703.53;5169092;28;20037;-72
2023/04/01 03:38:06;;;;;;;0.65;0.32;;;;;;;9.74;100.00;98698.94;5162325;28;20033;-72
2023/04/01 03:40:38;;;;;;;1.60;0.50;;;;;;;9.78;100.00;98703.88;5167412;28;20040;-71
2023/04/01 03:43:09;;;;;;;1.50;0.50;;;;;;;9.72;100.00;98713.84;5156940;28;20092;-70
2023/04/01 03:45:45;;;;;;;1.75;0.52;;;;;;;9.72;100.00;98706.03;5161470;28;20034;-71
2023/04/01 03:48:15;;;;;;;2.85;0.50;;;;;;;9.78;100.00;98706.50;5159632;28;20022;-71
2023/04/01 03:50:46;;;;;;;4.60;0.65;;;;;;;9.64;100.00;98705.69;5163064;28;20031;-71
2023/04/01 03:53:17;;;;;;;2.42;0.70;;;;;;;9.85;100.00;98713.00;5172082;28;20054;-71
2023/04/01 03:55:48;;;;;;;1.25;0.50;;;;;;;9.86;100.00;98712.06;5166759;28;20038;-71
2023/04/01 03:58:19;;;;;;;1.85;0.70;;;;;;;9.79;100.00;98702.94;5170735;28;20046;-72
2023/04/01 04:00:49;;;;;;;3.47;0.45;;;;;;;9.78;100.00;98713.47;5162943;28;20076;-71
2023/04/01 04:03:20;;;;;;;4.40;0.90;;;;;;;9.88;100.00;98717.19;5164247;28;20047;-72
2023/04/01 04:05:50;;;;;;;1.35;0.65;;;;;;;9.96;100.00;98717.56;5158838;28;20035;-71
2023/04/01 04:08:21;;;;;;;2.47;0.50;;;;;;;9.80;100.00;98707.22;5167078;28;20057;-70
2023/04/01 04:10:55;;;;;;;1.20;0.60;;;;;;;9.70;100.00;98711.34;5165094;28;20027;-71
2023/04/01 04:13:26;;;;;;;2.50;0.70;;;;;;;9.81;100.00;98715.91;5168375;28;20037;-72
2023/04/01 04:15:56;;;;;;;1.55;0.55;;;;;;;9.80;100.00;98717.66;5164945;28;20023;-71
2023/04/01 04:18:26;;;;;;;2.10;0.57;;;;;;;9.86;100.00;98722.50;5167133;28;20046;-71
2023/04/01 04:20:57;;;;;;;1.42;0.70;;;;;;;9.81;100.00;98719.34;5165861;28;20332;-71
2023/04/01 04:23:29;;;;;;;4.43;0.80;;;;;;;9.69;100.00;98719.25;5170949;28;20042;-71
2023/04/01 04:26:05;;;;;;;2.92;0.60;;;;;;;9.68;100.00;98722.81;5172259;28;20026;-71
2023/04/01 04:28:35;;;;;;;3.05;0.88;;;;;;;9.75;100.00;98724.94;5168079;28;20030;-72
2023/04/01 04:31:07;;;;;;;4.93;1.63;;;;;;;9.69;100.00;98729.69;5171365;28;20412;-71
2023/04/01 04:33:37;;;;;;;3.33;0.80;;;;;;;9.65;100.00;98734.25;5161815;28;20198;-71
2023/04/01 04:36:08;;;;;;;2.28;0.60;;;;;;;9.82;100.00;98730.63;5170674;28;20087;-70
2023/04/01 04:38:38;;;;;;;3.53;0.80;;;;;;;9.64;100.00;98737.78;5168027;28;20500;-71
2023/04/01 04:41:17;;;;;;;1.20;0.50;;;;;;;9.73;100.00;98739.00;5170626;28;20026;-70
2023/04/01 04:43:55;;;;;;;4.55;0.90;;;;;;;9.66;100.00;98737.72;5172469;28;20030;-70
2023/04/01 04:46:25;;;;;;;1.75;0.60;;;;;;;9.54;100.00;98735.84;5169312;28;20104;-72
2023/04/01 04:48:56;;;;;;;4.18;0.75;;;;;;;9.59;100.00;98736.41;5166601;28;20469;-72
2023/04/01 04:51:26;;;;;;;4.30;0.68;;;;;;;9.52;100.00;98732.50;5170649;28;20030;-71
2023/04/01 04:53:56;;;;;;;1.45;0.68;;;;;;;9.51;100.00;98741.25;5166964;28;20044;-72
2023/04/01 04:56:27;;;;;;;2.15;0.70;;;;;;;9.58;100.00;98746.00;5167332;28;20034;-72
2023/04/01 04:58:58;;;;;;;1.33;0.60;;;;;;;9.46;100.00;98733.69;5167752;28;20120;-72
2023/04/01 05:01:28;;;;;;;5.45;0.70;;;;;;;9.59;100.00;98744.22;5167178;28;20026;-71
2023/04/01 05:03:59;;;;;;;3.38;0.70;;;;;;;9.60;100.00;98740.69;5170799;28;20539;-72
2023/04/01 05:06:31;;;;;;;3.92;0.90;;;;;;;9.56;100.00;98745.25;5166270;28;20026;-71
2023/04/01 05:09:01;;;;;;;1.50;0.68;;;;;;;9.55;100.00;98745.34;5163014;28;20329;-72
2023/04/01 05:11:31;;;;;;;1.05;0.50;;;;;;;9.56;100.00;98744.41;5166568;28;20552;-72
2023/04/01 05:14:02;;;;;;;4.68;0.77;;;;;;;9.55;100.00;98743.59;5166743;28;20026;-72
2023/04/01 05:16:32;;;;;;;2.90;0.47;;;;;;;9.67;100.00;98752.44;5176680;28;20037;-72
2023/04/01 05:19:02;;;;;;;3.05;0.70;;;;;;;9.66;100.00;98750.75;5167673;28;20451;-72
2023/04/01 05:21:33;;;;;;;1.27;0.68;;;;;;;9.60;100.00;98745.91;5167423;28;20144;-72
2023/04/01 05:24:03;;;;;;;4.70;0.52;;;;;;;9.67;100.00;98747.22;5169362;28;20451;-72
2023/04/01 05:26:33;;;;;;;1.25;0.50;;;;;;;9.70;100.00;98752.25;5165398;28;20538;-71
2023/04/01 05:29:04;;;;;;;3.63;0.43;;;;;;;9.77;100.00;98749.16;5166842;28;20032;-71
2023/04/01 05:31:34;;;;;;;3.72;0.95;;;;;;;9.78;100.00;98763.03;5167859;28;20038;-71
2023/04/01 05:34:05;;;;;;;1.27;0.50;;;;;;;9.90;100.00;98755.31;5168783;28;20032;-72
2023/04/01 05:36:35;;;;;;;4.22;0.70;;;;;;;9.93;100.00;98762.09;5168943;28;20443;-72
2023/04/01 05:39:05;;;;;;;1.35;0.60;;;;;;;10.06;100.00;98757.81;5168244;28;20025;-72
2023/04/01 05:41:37;;;;;;;6.45;0.63;;;;;;;10.10;100.00;98759.31;5168760;28;20142;-72
2023/04/01 05:44:07;;;;;;;2.00;0.47;;;;;;;10.16;100.00;98761.53;5167371;28;20483;-71
2023/04/01 05:46:37;;;;;;;1.73;0.60;;;;;;;10.16;100.00;98766.78;5167067;28;20083;-71
2023/04/01 05:49:08;;;;;;;1.20;0.50;;;;;;;10.16;100.00;98767.59;5170750;28;20101;-72
2023/04/01 05:51:38;;;;;;;2.55;0.57;;;;;;;10.21;100.00;98775.13;5165486;28;20116;-72
2023/04/01 05:54:08;;;;;;;3.50;0.80;;;;;;;10.22;100.00;98772.44;5170645;28;20368;-72
2023/04/01 05:56:38;;;;;;;3.17;0.60;;;;;;;10.21;100.00;98767.31;5164802;28;20092;-72
2023/04/01 05:59:10;;;;;;;2.13;0.63;;;;;;;10.20;100.00;98769.06;5162242;28;20565;-71
2023/04/01 06:01:42;;;;;;;2.08;0.50;;;;;;;10.28;100.00;98769.44;5170399;28;20061;-72
2023/04/01 06:04:15;;;;;;;0.95;0.43;;;;;;;10.33;100.00;98775.19;5165067;28;20113;-71
2023/04/01 06:06:46;;;;;;;1.95;0.68;;;;;;;10.34;100.00;98774.25;5168009;28;20038;-71
2023/04/01 06:09:19;;;;;;;0.30;0.30;;;;;;;10.37;100.00;98784.50;5164109;28;20025;-71
2023/04/01 06:11:55;;;;;;;1.20;0.43;;;;;;;10.45;100.00;98784.03;5164662;28;20032;-71
2023/04/01 06:15:03;;;;;;;1.80;0.50;;;;;;;10.32;100.00;98783.16;5166662;28;20034;-71
2023/04/01 06:17:52;;;;;;;0.95;0.40;;;;;;;10.38;100.00;98788.78;5168560;28;20061;-71
2023/04/01 06:20:38;;;;;;;1.65;0.40;;;;;;;10.36;100.00;98784.63;5163881;28;20041;-71
2023/04/01 06:23:27;;;;;;;1.67;0.52;;;;;;;10.43;100.00;98783.28;5168719;28;20041;-71
2023/04/01 06:26:25;;;;;;;3.08;0.60;;;;;;;10.47;100.00;98787.38;5166242;28;20136;-72
2023/04/01 06:29:27;;;;;;;2.22;0.47;;;;;;;10.50;100.00;98787.19;5204096;22;20568;-73
2023/04/01 06:32:15;;;;;;;3.25;0.63;;;;;;;10.50;100.00;98790.63;5170325;28;20033;-74
2023/04/01 06:34:51;;;;;;;0.80;0.40;;;;;;;10.55;100.00;98790.34;5191054;28;20033;-75
2023/04/01 06:37:28;;;;;;;0.80;0.35;;;;;;;10.62;100.00;98797.69;5171418;28;20080;-74
2023/04/01 06:40:08;;;;;;;2.33;0.60;;;;;;;10.69;100.00;98798.16;5153298;28;20120;-73
2023/04/01 06:42:53;;;;;;;2.10;0.50;;;;;;;10.78;100.00;98800.16;5167190;28;20504;-73
2023/04/01 06:45:24;;;;;;;2.17;0.40;;;;;;;10.80;100.00;98803.50;5167939;28;20031;-72
2023/04/01 06:48:19;;;;;;;2.42;0.30;;;;;;;10.82;100.00;98802.47;5165008;28;20021;-75
2023/04/01 06:50:56;;;;;;;2.05;0.30;;;;;;;10.83;100.00;98812.00;5166485;28;20034;-73
2023/04/01 06:53:54;;;;;;;1.33;0.43;;;;;;;11.02;100.00;98800.25;5153566;28;20061;-73
2023/04/01 06:56:28;;;;;;;1.30;0.30;;;;;;;11.09;100.00;98804.13;5166101;28;20212;-72
2023/04/01 06:59:05;;;;;;;2.15;0.35;;;;;;;11.14;100.00;98807.25;5148795;28;20120;-72
2023/04/01 07:01:44;;;;;;;1.33;0.32;;;;;;;11.26;100.00;98801.22;5153117;28;20030;-74
2023/04/01 07:04:30;;;;;;;1.73;0.52;;;;;;;11.37;100.00;98808.34;5168704;28;20059;-74
2023/04/01 07:07:10;;;;;;;2.30;0.50;;;;;;;11.42;100.00;98809.72;5168981;28;20234;-72
2023/04/01 07:09:49;;;;;;;0.60;0.20;;;;;;;11.56;100.00;98812.28;5168999;28;20025;-71
2023/04/01 07:12:27;;;;;;;1.63;0.30;;;;;;;11.69;100.00;98809.69;5168376;28;20099;-72
2023/04/01 07:15:03;;;;;;;1.55;0.30;;;;;;;11.76;100.00;98800.47;5148422;28;20034;-73
2023/04/01 07:17:38;;;;;;;2.17;0.57;;;;;;;11.95;100.00;98804.31;5166619;28;20053;-72
2023/04/01 07:20:26;;;;;;;4.85;0.43;;;;;;;12.31;100.00;98806.16;5165127;28;20090;-72
2023/04/01 07:23:03;;;;;;;0.40;0.30;;;;;;;12.80;100.00;98799.09;5169406;28;20026;-73
2023/04/01 07:25:50;;;;;;;1.85;0.40;;;;;;;12.90;100.00;98806.16;5152295;28;20021;-74
2023/04/01 07:28:22;;;;;;;0.65;0.17;;;;;;;13.13;100.00;98806.19;5165885;28;20033;-74
2023/04/01 07:31:04;;;;;;;2.00;0.30;;;;;;;12.84;100.00;98811.03;5166324;28;20030;-72
2023/04/01 07:33:58;;;;;;;0.55;0.28;;;;;;;13.08;100.00;98813.53;5164958;28;20372;-72
2023/04/01 07:36:38;;;;;;;0.20;0.20;;;;;;;13.11;100.00;98822.97;5166879;28;20577;-72
2023/04/01 07:39:23;;;;;;;0.73;0.20;;;;;;;13.30;100.00;98825.91;5145395;28;20220;-72
2023/04/01 07:42:02;;;;;;;0.63;0.20;;;;;;;13.28;100.00;98819.94;5166486;28;20026;-74
2023/04/01 07:44:51;;;;;;;1.25;0.30;;;;;;;13.68;100.00;98819.47;5152125;28;20026;-73
2023/04/01 07:47:22;;;;;;;1.25;0.17;;;;;;;14.17;100.00;98821.81;5146853;28;20228;-75
2023/04/01 07:50:10;;;;;;;0.30;0.20;;;;;;;14.60;100.00;98823.56;5149463;28;20026;-73
2023/04/01 07:53:04;;;;;;;0.80;0.40;;;;;;;15.33;100.00;98822.75;5157098;28;20310;-75
2023/04/01 07:55:37;;;;;;;0.43;0.20;;;;;;;16.36;94.56;98818.28;5158412;28;20085;-73
2023/04/01 07:58:39;;;;;;;0.35;0.20;;;;;;;16.63;92.69;98822.94;5156354;28;20034;-74
2023/04/01 08:01:13;;;;;;;1.02;0.20;;;;;;;15.98;90.54;98828.63;5162028;28;20124;-72
2023/04/01 08:04:02;;;;;;;1.55;0.28;;;;;;;15.35;92.90;98833.19;5173761;28;20434;-74
2023/04/01 08:06:50;;;;;;;1.88;0.25;;;;;;;14.81;98.13;98845.53;5167078;28;20563;-69
2023/04/01 08:09:21;;;;;;;0.73;0.30;;;;;;;14.85;100.00;98845.13;5161849;28;20037;-74
2023/04/01 08:12:11;;;;;;;0.70;0.22;;;;;;;15.27;97.38;98854.84;5145737;28;20025;-73
2023/04/01 08:14:46;;;;;;;1.95;0.40;;;;;;;14.92;95.94;98853.38;5162867;28;20502;-74
2023/04/01 08:17:36;;;;;;;0.20;0.10;;;;;;;15.12;98.10;98853.44;5161225;28;20053;-72
2023/04/01 08:20:36;;;;;;;0.38;0.15;;;;;;;14.90;98.92;98855.28;5172345;28;20326;-73
2023/04/01 08:23:23;;;;;;;1.45;0.28;;;;;;;14.37;97.34;98856.09;5152810;28;20033;-75
2023/04/01 08:25:57;;;;;;;0.45;0.20;;;;;;;14.32;100.00;98860.88;5168296;28;20022;-73
2023/04/01 08:28:36;;;;;;;1.52;0.38;;;;;;;14.06;100.00;98861.19;5155506;28;20026;-73
2023/04/01 08:31:18;;;;;;;1.67;0.25;;;;;;;13.70;100.00;98854.31;5170207;28;20387;-73
2023/04/01 08:33:52;;;;;;;0.75;0.20;;;;;;;13.78;100.00;98864.22;5162194;28;20034;-73
2023/04/01 08:37:08;;;;;;;0.50;0.20;;;;;;;13.81;100.00;98859.59;5161424;28;20109;-73
2023/04/01 08:39:44;;;;;;;1.13;0.20;;;;;;;14.11;100.00;98859.03;5120669;28;20088;-72
2023/04/01 08:42:34;;;;;;;0.63;0.20;;;;;;;14.10;100.00;98866.06;5148764;28;20030;-72
2023/04/01 08:45:33;;;;;;;0.10;0.08;;;;;;;13.91;100.00;98865.81;5135403;28;20140;-73
2023/04/01 08:48:48;;;;;;;0.68;0.17;;;;;;;13.68;100.00;98871.97;5146366;28;20040;-73
2023/04/01 08:51:53;;;;;;;1.30;0.20;;;;;;;13.57;100.00;98871.91;5146647;28;20037;-73
2023/04/01 08:54:46;;;;;;;0.95;0.20;;;;;;;13.42;100.00;98874.88;5165223;28;20084;-73
2023/04/01 08:57:22;;;;;;;0.95;0.20;;;;;;;13.21;100.00;98872.03;5170112;28;20075;-72
2023/04/01 09:00:02;;;;;;;1.35;0.20;;;;;;;13.28;100.00;98869.78;5166945;28;20423;-72
2023/04/01 09:02:55;;;;;;;0.40;0.17;;;;;;;13.28;100.00;98882.91;5163903;28;20061;-71
2023/04/01 09:05:44;;;;;;;1.20;0.20;;;;;;;13.42;100.00;98873.06;5145062;28;20041;-74
2023/04/01 09:08:51;;;;;;;1.00;0.28;;;;;;;13.64;100.00;98874.94;5163685;28;20042;-74
2023/04/01 09:11:39;;;;;;;0.65;0.20;;;;;;;13.87;100.00;98881.91;5165252;28;20034;-73
2023/04/01 09:14:17;;;;;;;0.82;0.25;;;;;;;13.69;100.00;98883.28;5148794;28;20050;-72
2023/04/01 09:17:25;;;;;;;0.32;0.15;;;;;;;14.08;100.00;98875.84;5138550;28;20027;-73
2023/04/01 09:20:04;;;;;;;1.38;0.10;;;;;;;14.11;100.00;98883.50;5162219;28;20034;-73
2023/04/01 09:22:47;;;;;;;2.97;0.80;;;;;;;14.29;98.96;98882.09;5154084;28;20030;-73
2023/04/01 09:25:20;;;;;;;0.57;0.20;;;;;;;14.32;92.97;98878.41;5151476;28;20034;-75
2023/04/01 09:28:07;;;;;;;0.77;0.30;;;;;;;14.53;94.83;98884.63;5168788;28;20109;-72
2023/04/01 09:30:46;;;;;;;1.60;0.38;;;;;;;14.03;95.27;98882.41;5149919;28;20096;-73
2023/04/01 09:33:28;;;;;;;1.05;0.40;;;;;;;13.60;99.08;98887.44;5164587;28;20041;-74
2023/04/01 09:36:36;;;;;;;1.10;0.30;;;;;;;13.92;98.19;98893.72;5148880;28;20033;-73
2023/04/01 09:39:15;;;;;;;0.77;0.20;;;;;;;13.92;98.83;98895.53;5167532;28;20045;-74
2023/04/01 09:42:23;;;;;;;1.33;0.40;;;;;;;14.08;98.25;98896.88;5167300;28;20483;-72
2023/04/01 09:44:59;;;;;;;1.15;0.30;;;;;;;14.36;97.30;98900.88;5160014;28;20503;-74
2023/04/01 09:47:48;;;;;;;0.25;0.13;;;;;;;14.50;96.98;98903.28;5144271;28;20034;-73
2023/04/01 09:50:35;;;;;;;1.48;0.40;;;;;;;14.62;94.34;98899.69;5160580;28;20707;-73
2023/04/01 09:53:17;;;;;;;0.38;0.20;;;;;;;14.80;88.95;98901.69;5160350;28;20305;-73
2023/04/01 09:56:26;;;;;;;0.40;0.20;;;;;;;15.14;89.33;98904.16;5168110;28;20029;-73
2023/04/01 09:59:21;;;;;;;0.10;0.10;;;;;;;15.05;88.80;98910.13;5125938;28;21065;-74
2023/04/01 10:02:19;;;;;;;0.65;0.20;;;;;;;15.15;93.02;98910.25;5165181;28;20427;-72
2023/04/01 10:05:11;;;;;;;0.10;0.10;;;;;;;15.05;90.71;98907.50;5163221;28;20073;-73
2023/04/01 10:08:35;;;;;;;0.63;0.17;;;;;;;14.69;89.30;98914.88;5163988;28;20125;-72
2023/04/01 10:11:27;;;;;;;0.00;0.00;;;;;;;14.48;92.20;98913.06;5073052;29;20040;-74
2023/04/01 10:13:57;;;;;;;1.05;0.20;;;;;;;14.46;95.50;98909.72;5143336;28;20040;-72
2023/04/01 10:16:42;;;;;;;0.20;0.10;;;;;;;14.41;95.31;98919.78;5161837;28;20518;-73
2023/04/01 10:19:31;;;;;;;0.10;0.10;;;;;;;14.08;91.22;98912.63;5145176;28;20038;-74
2023/04/01 10:22:17;;;;;;;1.00;0.20;;;;;;;14.08;94.55;98912.63;5161453;28;20030;-72
2023/04/01 10:25:08;;;;;;;0.52;0.10;;;;;;;14.17;95.23;98917.22;5141822;28;20033;-73
2023/04/01 10:27:42;;;;;;;0.20;0.10;;;;;;;14.12;96.85;98918.50;5129948;28;20088;-71
2023/04/01 10:30:59;;;;;;;0.22;0.10;;;;;;;14.00;94.15;98919.41;5134107;28;20037;-73
2023/04/01 10:33:46;;;;;;;1.42;0.20;;;;;;;13.94;92.81;98925.16;5156784;28;20293;-73
2023/04/01 10:36:31;;;;;;;0.00;0.00;;;;;;;13.97;94.69;98914.41;5158258;28;20042;-73
2023/04/01 10:39:39;;;;;;;0.70;0.10;;;;;;;13.89;97.27;98924.66;5157037;28;20347;-73
2023/04/01 10:42:15;;;;;;;0.90;0.20;;;;;;;13.94;97.85;98925.97;5155647;28;20022;-73
2023/04/01 10:45:15;;;;;;;0.52;0.20;;;;;;;13.77;96.26;98928.19;5127010;28;20030;-72
2023/04/01 10:48:18;;;;;;;2.58;0.88;;;;;;;13.78;98.21;98929.88;5157538;28;20037;-72
2023/04/01 10:50:51;;;;;;;2.17;0.50;;;;;;;13.65;99.21;98934.34;5152843;28;20046;-72
2023/04/01 10:53:27;;;;;;;2.05;0.50;;;;;;;13.44;99.95;98936.75;5161923;28;20463;-72
2023/04/01 10:56:16;;;;;;;3.42;0.40;;;;;;;13.52;100.00;98936.19;5155606;28;20404;-71
2023/04/01 10:59:16;;;;;;;3.65;0.60;;;;;;;13.44;100.00;98946.44;5138414;28;20512;-69
2023/04/01 11:02:01;;;;;;;3.15;0.55;;;;;;;13.35;100.00;98947.94;5145015;28;20046;-72
2023/04/01 11:05:09;;;;;;;0.98;0.28;;;;;;;13.08;100.00;98942.03;5141471;28;20030;-73
2023/04/01 11:07:59;;;;;;;1.02;0.40;;;;;;;13.38;100.00;98952.13;5156665;28;20054;-72
2023/04/01 11:11:01;;;;;;;2.92;0.60;;;;;;;13.26;100.00;98947.78;5137640;28;20496;-72
2023/04/01 11:13:56;;;;;;;2.42;0.50;;;;;;;13.19;100.00;98949.13;5055036;28;20089;-74
2023/04/01 11:16:45;;;;;;;0.82;0.30;;;;;;;13.18;100.00;98950.94;5158684;28;20030;-73
2023/04/01 11:19:50;;;;;;;0.50;0.20;;;;;;;13.37;100.00;98960.97;5141109;28;20165;-71
2023/04/01 11:22:29;;;;;;;0.43;0.20;;;;;;;13.31;100.00;98961.38;5126392;28;20045;-74
2023/04/01 11:25:12;;;;;;;0.40;0.10;;;;;;;13.23;100.00;98963.75;5152965;28;20377;-73
2023/04/01 11:28:15;;;;;;;0.85;0.20;;;;;;;13.05;100.00;98965.06;5157447;28;20166;-75
2023/04/01 11:31:13;;;;;;;1.25;0.20;;;;;;;12.94;100.00;98964.97;5151685;28;20034;-72
2023/04/01 11:33:57;;;;;;;0.73;0.20;;;;;;;13.20;97.89;98969.22;5148848;28;20488;-72
2023/04/01 11:37:06;;;;;;;0.82;0.32;;;;;;;13.20;98.08;98964.78;5140527;28;20042;-72
2023/04/01 11:39:58;;;;;;;2.50;0.35;;;;;;;13.41;95.78;98973.72;5167164;28;20046;-73
2023/04/01 11:43:00;;;;;;;3.03;0.10;;;;;;;13.24;95.11;98966.22;5165378;28;20092;-73
2023/04/01 11:45:42;;;;;;;0.95;0.15;;;;;;;13.54;96.79;98973.69;5145868;28;20141;-74
2023/04/01 11:48:16;;;;;;;0.55;0.10;;;;;;;13.32;95.13;98979.66;5158954;28;20041;-75
2023/04/01 11:51:11;;;;;;;1.80;0.10;;;;;;;13.34;96.33;98979.53;5168396;28;20510;-73
2023/04/01 11:53:53;;;;;;;0.30;0.10;;;;;;;13.13;96.51;98979.28;5163321;28;20022;-73
2023/04/01 11:56:56;;;;;;;1.00;0.20;;;;;;;13.12;96.45;98988.13;5157914;28;20472;-72
2023/04/01 11:59:48;;;;;;;1.42;0.28;;;;;;;12.78;100.00;98995.78;5157698;28;20078;-71
2023/04/01 12:02:59;;;;;;;0.22;0.20;;;;;;;13.02;100.00;98996.72;5157752;28;20042;-72
2023/04/01 12:05:53;;;;;;;0.43;0.13;;;;;;;13.22;100.00;98988.31;5160109;28;20443;-73
2023/04/01 12:08:23;;;;;;;0.10;0.10;;;;;;;13.13;100.00;98994.19;5162532;28;20129;-73
2023/04/01 12:10:53;;;;;;;0.22;0.17;;;;;;;13.33;100.00;98996.22;5165260;28;20591;-72
2023/04/01 12:13:52;;;;;;;0.20;0.10;;;;;;;13.34;100.00;98997.88;5146412;28;20455;-74
2023/04/01 12:16:46;;;;;;;0.90;0.35;;;;;;;13.24;100.00;98996.91;5164816;28;20289;-75
2023/04/01 12:19:35;;;;;;;0.45;0.10;;;;;;;13.57;99.44;99004.97;5164430;28;20029;-72
2023/04/01 12:22:27;;;;;;;0.52;0.10;;;;;;;13.59;97.95;99003.06;5162509;28;20076;-75
2023/04/01 12:25:26;;;;;;;0.90;0.20;;;;;;;13.46;94.85;99008.38;5163456;28;20170;-75
2023/04/01 12:30:50;;;;;;;1.98;0.30;;;;;;;13.56;100.00;99013.78;5153140;28;20051;-78
2023/04/01 12:33:41;;;;;;;3.55;0.65;;;;;;;13.64;99.91;99014.06;5172815;28;20112;-78